Time;durP1;ratioP1;P1;durP2;ratioP2;P2;SDS_P1;SDS_P2;PMS_P1;PMS_P2;Temp;Humidity;BMP_temperature;BMP_pressure;BME280_temperature;BME280_humidity;BME280_pressure;Samples;Min_cycle;Max_cycle;Signal;HPM_P1;HPM_P2
2024/01/09 00:01:08;;;;;;;43.42;19.30;;;-2.90;99.90;;;;;;4947410;28;20057;-66
2024/01/09 00:03:35;;;;;;;47.92;20.20;;;-2.90;99.90;;;;;;4955755;28;20055;-66
2024/01/09 00:06:02;;;;;;;49.70;21.17;;;-2.90;99.90;;;;;;4955779;29;20103;-66
2024/01/09 00:08:29;;;;;;;;;;;-2.90;99.90;;;;;;4956018;29;20445;-66
2024/01/09 00:11:00;;;;;;;44.00;19.58;;;-3.00;99.90;;;;;;4953095;29;20525;-66
2024/01/09 00:13:26;;;;;;;47.78;20.63;;;-3.00;99.90;;;;;;4955646;28;20094;-66
2024/01/09 00:15:53;;;;;;;46.30;18.83;;;-3.00;99.90;;;;;;4954602;28;20053;-66
2024/01/09 00:18:20;;;;;;;51.50;19.75;;;-3.00;99.90;;;;;;4962926;28;20043;-66
2024/01/09 00:20:47;;;;;;;;;;;-3.00;99.90;;;;;;4961385;28;20396;-66
2024/01/09 00:23:14;;;;;;;45.78;18.85;;;-3.00;99.90;;;;;;4955910;29;20298;-66
2024/01/09 00:25:41;;;;;;;42.42;17.48;;;-3.00;99.90;;;;;;4943492;29;20059;-66
2024/01/09 00:28:08;;;;;;;48.78;19.90;;;-2.90;99.90;;;;;;4954143;29;20078;-66
2024/01/09 00:30:35;;;;;;;50.45;19.60;;;-3.00;99.90;;;;;;4954574;29;20124;-66
2024/01/09 00:33:02;;;;;;;48.70;19.95;;;-3.00;99.90;;;;;;4954751;29;20452;-66
2024/01/09 00:35:29;;;;;;;;;;;-3.00;99.90;;;;;;4947037;28;20519;-66
2024/01/09 00:37:56;;;;;;;43.90;19.30;;;-3.00;99.90;;;;;;4955731;29;20014;-66
2024/01/09 00:40:23;;;;;;;43.08;19.42;;;-3.00;99.90;;;;;;4954978;29;20043;-66
2024/01/09 00:42:49;;;;;;;52.13;19.88;;;-3.00;99.90;;;;;;4955669;29;20061;-66
2024/01/09 00:45:16;;;;;;;45.42;19.48;;;-3.10;99.90;;;;;;4946808;29;20047;-66
2024/01/09 00:47:43;;;;;;;50.45;19.60;;;-3.10;99.90;;;;;;4955536;29;20047;-66
2024/01/09 00:50:10;;;;;;;;;;;-3.10;99.90;;;;;;4955324;29;20043;-66
2024/01/09 00:52:37;;;;;;;48.55;19.30;;;-3.10;99.90;;;;;;4951433;29;19938;-66
2024/01/09 00:55:04;;;;;;;51.95;19.83;;;-3.10;99.90;;;;;;4949990;28;20173;-66
2024/01/09 00:57:31;;;;;;;;;;;-3.10;99.90;;;;;;4955583;29;20061;-66
2024/01/09 00:59:57;;;;;;;44.65;19.27;;;-3.10;99.90;;;;;;4954193;29;20026;-66
2024/01/09 01:02:24;;;;;;;53.28;20.58;;;-3.20;99.90;;;;;;4946142;29;20054;-66
2024/01/09 01:04:51;;;;;;;53.35;20.30;;;-3.20;99.90;;;;;;4953541;28;20035;-66
2024/01/09 01:07:18;;;;;;;48.38;19.23;;;-3.20;99.90;;;;;;4951381;29;20423;-66
2024/01/09 01:09:45;;;;;;;50.17;20.65;;;-3.30;99.90;;;;;;4954491;29;20106;-66
2024/01/09 01:12:12;;;;;;;56.83;22.33;;;-3.20;99.90;;;;;;4953097;29;20046;-66
2024/01/09 01:14:38;;;;;;;56.05;22.10;;;-3.20;99.90;;;;;;4954705;28;20047;-66
2024/01/09 01:17:05;;;;;;;57.50;21.55;;;-3.10;99.90;;;;;;4945220;29;20035;-66
2024/01/09 01:19:32;;;;;;;54.17;20.33;;;-3.10;99.90;;;;;;4952986;29;20069;-66
2024/01/09 01:21:59;;;;;;;55.45;21.95;;;-3.10;99.90;;;;;;4953315;29;20106;-66
2024/01/09 01:24:26;;;;;;;54.47;21.08;;;-3.10;99.90;;;;;;4947101;28;20406;-66
2024/01/09 01:26:52;;;;;;;51.28;20.05;;;-3.10;99.90;;;;;;4947315;28;20488;-66
2024/01/09 01:29:19;;;;;;;49.15;21.80;;;-3.20;99.90;;;;;;4954717;29;20047;-66
2024/01/09 01:31:46;;;;;;;50.58;21.75;;;-3.20;99.90;;;;;;4952713;29;20039;-66
2024/01/09 01:34:13;;;;;;;53.63;22.33;;;-3.20;99.90;;;;;;4949335;28;20446;-66
2024/01/09 01:36:40;;;;;;;56.97;23.35;;;-3.20;99.90;;;;;;4953772;29;20173;-66
2024/01/09 01:39:07;;;;;;;50.63;20.85;;;-3.30;99.90;;;;;;4954502;29;20051;-66
2024/01/09 01:41:34;;;;;;;57.97;21.63;;;-3.30;99.90;;;;;;4953037;29;20083;-66
2024/01/09 01:44:01;;;;;;;48.38;20.48;;;-3.30;99.90;;;;;;4954142;28;20515;-66
2024/01/09 01:46:30;;;;;;;51.13;20.77;;;-3.30;99.90;;;;;;4953714;29;20436;-66
2024/01/09 01:48:57;;;;;;;54.00;22.67;;;-3.30;99.90;;;;;;4954283;29;20077;-66
2024/01/09 01:51:23;;;;;;;54.65;22.00;;;-3.30;99.90;;;;;;4947564;29;20062;-66
2024/01/09 01:53:50;;;;;;;52.33;21.95;;;-3.30;99.90;;;;;;4949087;28;20050;-66
2024/01/09 01:56:17;;;;;;;56.00;22.23;;;-3.30;99.90;;;;;;4955460;29;20075;-66
2024/01/09 01:58:45;;;;;;;50.33;20.92;;;-3.40;99.90;;;;;;4953729;29;20042;-66
2024/01/09 02:01:11;;;;;;;;;;;-3.40;99.90;;;;;;4928120;29;20063;-66
2024/01/09 02:03:38;;;;;;;49.67;20.67;;;-3.40;99.90;;;;;;4952814;28;19926;-66
2024/01/09 02:06:05;;;;;;;57.35;22.00;;;-3.40;99.90;;;;;;4947977;29;20119;-66
2024/01/09 02:08:35;;;;;;;50.33;21.10;;;-3.40;99.90;;;;;;4951508;28;20102;-66
2024/01/09 02:11:02;;;;;;;53.60;21.20;;;-3.50;99.90;;;;;;4945956;28;20035;-66
2024/01/09 02:13:28;;;;;;;59.03;22.50;;;-3.50;99.90;;;;;;4953885;28;20047;-66
2024/01/09 02:15:55;;;;;;;56.63;22.10;;;-3.60;99.90;;;;;;4949647;29;20051;-66
2024/01/09 02:18:22;;;;;;;53.28;22.33;;;-3.60;99.90;;;;;;4951482;28;20043;-66
2024/01/09 02:20:49;;;;;;;54.50;22.35;;;-3.50;99.90;;;;;;4945913;29;20039;-66
2024/01/09 02:23:16;;;;;;;52.28;21.55;;;-3.60;99.90;;;;;;4952981;29;20074;-66
2024/01/09 02:25:44;;;;;;;57.40;22.05;;;-3.60;99.90;;;;;;4951999;28;20613;-66
2024/01/09 02:28:23;;;;;;;58.78;22.63;;;-3.60;99.90;;;;;;4951773;29;20411;-66
2024/01/09 02:30:54;;;;;;;53.58;22.10;;;-3.60;99.90;;;;;;4953036;28;20107;-66
2024/01/09 02:33:21;;;;;;;58.78;21.25;;;-3.60;99.90;;;;;;4953032;29;20046;-66
2024/01/09 02:35:48;;;;;;;53.55;21.20;;;-3.70;99.90;;;;;;4950786;29;20048;-66
2024/01/09 02:38:15;;;;;;;55.38;21.90;;;-3.60;99.90;;;;;;4953345;29;20032;-66
2024/01/09 02:40:42;;;;;;;;;;;-3.70;99.90;;;;;;4953224;28;20066;-66
2024/01/09 02:43:08;;;;;;;58.42;22.25;;;-3.70;99.90;;;;;;4953752;29;19941;-66
2024/01/09 02:45:35;;;;;;;53.25;21.92;;;-3.70;99.90;;;;;;4949004;28;20043;-66
2024/01/09 02:48:02;;;;;;;57.88;21.95;;;-3.70;99.90;;;;;;4948061;29;20118;-66
2024/01/09 02:50:29;;;;;;;;;;;-3.70;99.90;;;;;;4952051;29;20055;-66
2024/01/09 02:52:56;;;;;;;56.25;22.15;;;-3.70;99.90;;;;;;4952256;28;19922;-66
2024/01/09 02:55:23;;;;;;;51.47;20.88;;;-3.70;99.90;;;;;;4945366;28;20043;-66
2024/01/09 02:57:50;;;;;;;54.42;21.10;;;-3.70;99.90;;;;;;4944660;29;20042;-66
2024/01/09 03:00:18;;;;;;;63.70;23.55;;;-3.70;99.90;;;;;;4941663;29;20427;-66
2024/01/09 03:02:45;;;;;;;54.78;20.88;;;-3.70;99.90;;;;;;4949951;29;20051;-66
2024/01/09 03:05:12;;;;;;;55.05;21.90;;;-3.70;99.90;;;;;;4948298;29;20051;-66
2024/01/09 03:07:39;;;;;;;;;;;-3.60;99.90;;;;;;4952009;29;20137;-66
2024/01/09 03:10:07;;;;;;;51.15;20.98;;;-3.70;99.90;;;;;;4946764;29;19978;-66
2024/01/09 03:12:33;;;;;;;58.08;22.73;;;-3.70;99.90;;;;;;4953154;29;20416;-66
2024/01/09 03:15:00;;;;;;;54.20;20.83;;;-3.70;99.90;;;;;;4943859;29;20074;-66
2024/01/09 03:17:27;;;;;;;49.92;20.83;;;-3.70;99.90;;;;;;4948511;29;20042;-66
2024/01/09 03:19:54;;;;;;;59.60;21.52;;;-3.80;99.90;;;;;;4951409;29;20076;-66
2024/01/09 03:22:20;;;;;;;57.58;21.38;;;-3.80;99.90;;;;;;4960379;28;20059;-66
2024/01/09 03:24:47;;;;;;;50.97;20.83;;;-3.70;99.90;;;;;;4960316;28;20078;-66
2024/01/09 03:27:14;;;;;;;66.13;23.90;;;-3.80;99.90;;;;;;4953119;28;20059;-66
2024/01/09 03:29:41;;;;;;;56.63;21.55;;;-3.80;99.90;;;;;;4946942;29;20047;-66
2024/01/09 03:32:08;;;;;;;57.88;21.42;;;-3.80;99.90;;;;;;4945217;29;20169;-66
2024/01/09 03:34:34;;;;;;;55.15;22.45;;;-3.90;99.90;;;;;;4942112;29;20039;-66
2024/01/09 03:37:02;;;;;;;61.58;23.05;;;-3.80;99.90;;;;;;4952566;29;20392;-66
2024/01/09 03:39:28;;;;;;;;;;;-3.80;99.90;;;;;;4953105;29;20047;-66
2024/01/09 03:41:55;;;;;;;57.72;21.85;;;-3.80;99.90;;;;;;4952389;29;19922;-66
2024/01/09 03:44:22;;;;;;;56.88;22.13;;;-3.80;99.90;;;;;;4943195;28;20052;-66
2024/01/09 03:46:49;;;;;;;58.78;22.50;;;-3.80;99.90;;;;;;4951792;29;20043;-66
2024/01/09 03:49:15;;;;;;;55.70;21.00;;;-3.80;99.90;;;;;;4946377;29;20056;-66
2024/01/09 03:51:42;;;;;;;62.45;22.40;;;-3.80;99.90;;;;;;4945700;28;20035;-66
2024/01/09 03:54:10;;;;;;;67.22;23.58;;;-3.80;99.90;;;;;;4943059;29;20051;-66
2024/01/09 03:56:37;;;;;;;57.08;23.50;;;-3.80;99.90;;;;;;4955262;29;20054;-67
2024/01/09 03:59:04;;;;;;;56.35;21.63;;;-3.80;99.90;;;;;;4955965;29;20122;-66
2024/01/09 04:01:30;;;;;;;64.75;22.70;;;-3.80;99.90;;;;;;4952247;29;20043;-66
2024/01/09 04:03:57;;;;;;;62.83;23.20;;;-3.90;99.90;;;;;;4955843;28;20039;-66
2024/01/09 04:06:24;;;;;;;58.65;21.98;;;-3.90;99.90;;;;;;4954852;29;20054;-66
2024/01/09 04:08:51;;;;;;;61.50;21.92;;;-3.90;99.90;;;;;;4948382;29;20043;-66
2024/01/09 04:11:18;;;;;;;59.25;22.42;;;-3.90;99.90;;;;;;4955881;29;20075;-66
2024/01/09 04:13:45;;;;;;;58.10;20.50;;;-4.00;99.90;;;;;;4947882;28;20047;-66
2024/01/09 04:16:13;;;;;;;58.08;23.33;;;-4.00;99.90;;;;;;4951616;29;20047;-66
2024/01/09 04:18:39;;;;;;;65.57;23.27;;;-4.00;99.90;;;;;;4955933;29;20047;-66
2024/01/09 04:21:06;;;;;;;57.22;23.85;;;-4.10;99.90;;;;;;4947310;29;20126;-66
2024/01/09 04:23:33;;;;;;;62.20;22.55;;;-4.10;99.90;;;;;;4946212;28;20039;-66
2024/01/09 04:26:00;;;;;;;60.67;21.13;;;-4.10;99.90;;;;;;4950714;29;20051;-66
2024/01/09 04:28:27;;;;;;;61.55;21.92;;;-4.20;99.90;;;;;;4955677;29;20503;-66
2024/01/09 04:30:56;;;;;;;61.30;23.38;;;-4.20;99.90;;;;;;4958592;28;20058;-66
2024/01/09 04:33:23;;;;;;;64.32;23.33;;;-4.20;99.90;;;;;;4952502;29;20062;-66
2024/01/09 04:35:50;;;;;;;63.97;22.92;;;-4.30;99.90;;;;;;4924776;29;20051;-66
2024/01/09 04:38:17;;;;;;;62.22;23.95;;;-4.30;99.90;;;;;;4954706;28;20051;-66
2024/01/09 04:40:44;;;;;;;61.35;21.88;;;-4.30;99.90;;;;;;4954953;29;20039;-66
2024/01/09 04:43:11;;;;;;;58.95;23.05;;;-4.30;99.90;;;;;;4943501;29;20131;-66
2024/01/09 04:45:38;;;;;;;67.85;24.35;;;-4.30;99.90;;;;;;4955050;28;20045;-66
2024/01/09 04:48:06;;;;;;;67.70;24.75;;;-4.30;99.90;;;;;;4952465;29;20051;-66
2024/01/09 04:50:33;;;;;;;62.58;22.98;;;-4.20;99.90;;;;;;4948862;29;20039;-66
2024/01/09 04:52:59;;;;;;;57.50;23.20;;;-4.20;99.90;;;;;;4953558;29;20071;-66
2024/01/09 04:55:26;;;;;;;72.63;25.17;;;-4.20;99.90;;;;;;4954999;28;20043;-66
2024/01/09 04:57:53;;;;;;;58.65;22.58;;;-4.20;99.90;;;;;;4954211;28;20039;-66
2024/01/09 05:00:21;;;;;;;65.60;22.65;;;-4.20;99.90;;;;;;4936730;29;20043;-66
2024/01/09 05:02:49;;;;;;;59.40;22.23;;;-4.10;99.90;;;;;;4953540;28;20055;-66
2024/01/09 05:05:16;;;;;;;64.25;23.52;;;-4.10;99.90;;;;;;4954015;28;20047;-66
2024/01/09 05:07:42;;;;;;;61.30;23.38;;;-4.10;99.90;;;;;;4954646;29;20434;-66
2024/01/09 05:10:09;;;;;;;69.22;22.73;;;-4.10;99.90;;;;;;4936106;29;20055;-66
2024/01/09 05:12:36;;;;;;;66.18;22.88;;;-4.10;99.90;;;;;;4952000;29;20043;-66
2024/01/09 05:15:04;;;;;;;58.92;22.85;;;-4.10;99.90;;;;;;4951819;28;20042;-66
2024/01/09 05:17:30;;;;;;;62.38;22.55;;;-4.10;99.90;;;;;;4950919;29;20050;-66
2024/01/09 05:19:57;;;;;;;57.60;23.27;;;-4.20;99.90;;;;;;4948254;29;20834;-66
2024/01/09 05:22:26;;;;;;;54.35;21.73;;;-4.20;99.90;;;;;;4950369;29;20043;-66
2024/01/09 05:24:53;;;;;;;53.00;20.52;;;-4.10;99.90;;;;;;4924577;29;20487;-66
2024/01/09 05:27:20;;;;;;;58.08;22.80;;;-4.20;99.90;;;;;;4947131;29;20500;-67
2024/01/09 05:29:47;;;;;;;;;;;-4.20;99.90;;;;;;4953243;29;20051;-66
2024/01/09 05:32:14;;;;;;;58.53;22.50;;;-4.20;99.90;;;;;;4951503;28;19934;-66
2024/01/09 05:34:40;;;;;;;63.45;22.55;;;-4.10;99.90;;;;;;4948575;28;20046;-66
2024/01/09 05:37:07;;;;;;;66.03;23.33;;;-4.10;99.90;;;;;;4930290;29;20066;-66
2024/01/09 05:39:34;;;;;;;59.70;23.17;;;-4.10;99.90;;;;;;4946767;29;20047;-66
2024/01/09 05:42:01;;;;;;;55.53;22.23;;;-4.00;99.90;;;;;;4954461;29;20049;-66
2024/01/09 05:44:27;;;;;;;67.28;23.35;;;-4.00;99.90;;;;;;4947370;29;20067;-66
2024/01/09 05:46:54;;;;;;;62.28;24.17;;;-4.00;99.90;;;;;;4951706;29;20054;-66
2024/01/09 05:49:21;;;;;;;60.95;24.10;;;-4.00;99.90;;;;;;4953075;29;20058;-66
2024/01/09 05:51:48;;;;;;;57.95;24.27;;;-3.90;99.90;;;;;;4954739;29;20040;-66
2024/01/09 05:54:15;;;;;;;60.97;22.35;;;-3.90;99.90;;;;;;4950540;28;20114;-66
2024/01/09 05:56:41;;;;;;;61.67;23.25;;;-3.90;99.90;;;;;;4938038;28;20043;-67
2024/01/09 05:59:08;;;;;;;59.55;22.55;;;-3.90;99.90;;;;;;4960813;28;20396;-66
2024/01/09 06:01:35;;;;;;;63.53;24.48;;;-3.90;99.90;;;;;;4949583;29;20047;-66
2024/01/09 06:04:02;;;;;;;67.68;24.13;;;-3.90;99.90;;;;;;4936337;29;20053;-66
2024/01/09 06:06:29;;;;;;;;;;;-3.90;99.90;;;;;;4945740;29;20054;-66
2024/01/09 06:08:56;;;;;;;66.32;23.60;;;-3.80;99.90;;;;;;4931782;29;20548;-66
2024/01/09 06:11:26;;;;;;;64.25;25.10;;;-3.80;99.90;;;;;;4946950;29;20404;-66
2024/01/09 06:13:55;;;;;;;67.05;24.45;;;-3.80;99.90;;;;;;4948184;28;20047;-66
2024/01/09 06:16:23;;;;;;;61.38;24.70;;;-3.90;99.90;;;;;;4941746;28;20051;-66
2024/01/09 06:18:50;;;;;;;61.05;24.90;;;-3.90;99.90;;;;;;4954420;28;20505;-65
2024/01/09 06:21:17;;;;;;;;;;;-3.90;99.90;;;;;;4947799;29;20578;-64
2024/01/09 06:23:47;;;;;;;63.42;23.35;;;-3.80;99.90;;;;;;4952669;28;19974;-64
2024/01/09 06:26:14;;;;;;;60.55;24.02;;;-3.80;99.90;;;;;;4952568;28;20067;-65
2024/01/09 06:28:42;;;;;;;62.83;24.75;;;-3.80;99.90;;;;;;4953494;28;20091;-65
2024/01/09 06:31:09;;;;;;;76.40;26.05;;;-3.80;99.90;;;;;;4951589;29;20053;-64
2024/01/09 06:33:36;;;;;;;59.72;24.33;;;-3.80;99.90;;;;;;4945860;28;20051;-65
2024/01/09 06:36:03;;;;;;;;;;;-3.80;99.90;;;;;;4952987;29;20043;-64
2024/01/09 06:38:30;;;;;;;61.40;24.52;;;-3.90;99.90;;;;;;4950126;29;19922;-64
2024/01/09 06:40:58;;;;;;;61.22;24.63;;;-3.90;99.90;;;;;;4952526;29;20568;-64
2024/01/09 06:43:25;;;;;;;67.32;24.35;;;-3.90;99.90;;;;;;4944917;28;20039;-64
2024/01/09 06:45:52;;;;;;;65.25;23.30;;;-4.00;99.90;;;;;;4953116;29;20107;-64
2024/01/09 06:48:19;;;;;;;62.28;24.48;;;-4.00;99.90;;;;;;4945255;29;20051;-64
2024/01/09 06:50:46;;;;;;;66.35;24.10;;;-4.00;99.90;;;;;;4948789;29;20036;-64
2024/01/09 06:53:13;;;;;;;71.18;25.35;;;-4.00;99.90;;;;;;4951900;29;20078;-64
2024/01/09 06:55:39;;;;;;;78.90;26.33;;;-4.00;99.90;;;;;;4951961;28;20039;-65
2024/01/09 06:58:07;;;;;;;68.75;25.48;;;-4.00;99.90;;;;;;4952518;29;20554;-64
2024/01/09 07:00:34;;;;;;;66.20;24.70;;;-4.10;99.90;;;;;;4948093;28;20469;-65
2024/01/09 07:03:01;;;;;;;67.18;24.77;;;-4.10;99.90;;;;;;4949571;29;20044;-65
2024/01/09 07:05:28;;;;;;;64.78;24.95;;;-4.10;99.90;;;;;;4947542;29;20099;-65
2024/01/09 07:07:55;;;;;;;60.92;24.63;;;-4.10;99.90;;;;;;4952046;29;20054;-64
2024/01/09 07:10:21;;;;;;;66.90;24.50;;;-4.10;99.90;;;;;;4945829;29;20047;-65
2024/01/09 07:12:48;;;;;;;63.78;23.05;;;-4.10;99.90;;;;;;4951453;29;20039;-64
2024/01/09 07:15:15;;;;;;;63.38;24.70;;;-4.10;99.90;;;;;;4935048;29;20043;-64
2024/01/09 07:17:46;;;;;;;65.40;25.02;;;-4.10;99.90;;;;;;4939986;29;20043;-65
2024/01/09 07:20:14;;;;;;;58.97;22.08;;;-4.10;99.90;;;;;;4952105;29;20063;-65
2024/01/09 07:22:41;;;;;;;57.95;22.00;;;-4.10;99.90;;;;;;4952499;29;20046;-65
2024/01/09 07:25:14;;;;;;;64.63;23.27;;;-4.10;99.90;;;;;;4948402;28;20433;-63
2024/01/09 07:27:41;;;;;;;58.67;22.63;;;-4.10;99.90;;;;;;4948210;29;20039;-64
2024/01/09 07:30:08;;;;;;;61.35;23.05;;;-4.20;99.90;;;;;;4946016;29;20508;-64
2024/01/09 07:32:35;;;;;;;62.58;23.58;;;-4.20;99.90;;;;;;4955738;29;20055;-65
2024/01/09 07:35:03;;;;;;;59.63;24.10;;;-4.30;99.90;;;;;;4955515;28;20513;-65
2024/01/09 07:37:30;;;;;;;62.53;24.05;;;-4.30;99.90;;;;;;4954353;29;20822;-64
2024/01/09 07:39:57;;;;;;;62.95;24.65;;;-4.30;99.90;;;;;;4955490;29;20501;-64
2024/01/09 07:42:24;;;;;;;65.72;24.15;;;-4.30;99.90;;;;;;4956311;29;20046;-64
2024/01/09 07:44:51;;;;;;;61.25;24.02;;;-4.30;99.90;;;;;;4955996;28;20149;-64
2024/01/09 07:47:18;;;;;;;65.55;25.55;;;-4.30;99.90;;;;;;4945208;29;20047;-64
2024/01/09 07:49:44;;;;;;;69.18;26.10;;;-4.30;99.90;;;;;;4955006;29;20047;-65
2024/01/09 07:52:11;;;;;;;63.95;24.52;;;-4.30;99.90;;;;;;4948880;29;20070;-64
2024/01/09 07:54:40;;;;;;;64.03;23.90;;;-4.30;99.90;;;;;;4955627;28;20053;-65
2024/01/09 07:57:07;;;;;;;66.65;24.85;;;-4.30;99.90;;;;;;4940248;29;20043;-64
2024/01/09 07:59:47;;;;;;;66.35;24.70;;;-4.30;99.90;;;;;;4955642;28;20420;-65
2024/01/09 08:02:14;;;;;;;71.35;25.70;;;-4.30;99.90;;;;;;4948912;28;20103;-64
2024/01/09 08:04:41;;;;;;;65.80;24.73;;;-4.20;99.90;;;;;;4955781;28;20051;-65
2024/01/09 08:07:08;;;;;;;69.30;25.02;;;-4.10;99.90;;;;;;4938423;29;20404;-64
2024/01/09 08:09:36;;;;;;;63.15;23.85;;;-4.00;99.90;;;;;;4955672;29;20075;-65
2024/01/09 08:12:03;;;;;;;65.53;24.10;;;-4.00;99.90;;;;;;4953606;28;20046;-65
2024/01/09 08:14:29;;;;;;;60.05;24.67;;;-3.90;99.90;;;;;;4955457;28;20050;-64
2024/01/09 08:16:56;;;;;;;73.07;26.35;;;-3.80;99.90;;;;;;4955404;29;20400;-65
2024/01/09 08:19:23;;;;;;;60.15;24.02;;;-3.80;99.90;;;;;;4947728;29;20059;-64
2024/01/09 08:21:50;;;;;;;65.15;25.77;;;-3.80;99.90;;;;;;4952583;29;20513;-64
2024/01/09 08:24:18;;;;;;;65.43;26.83;;;-3.70;99.90;;;;;;4955085;28;20485;-65
2024/01/09 08:26:49;;;;;;;58.72;22.75;;;-3.60;99.90;;;;;;4955130;29;20047;-64
2024/01/09 08:29:16;;;;;;;56.28;22.50;;;-3.50;99.90;;;;;;4942546;29;20047;-65
2024/01/09 08:31:47;;;;;;;54.03;21.80;;;-3.30;99.90;;;;;;4954819;29;20112;-65
2024/01/09 08:34:15;;;;;;;47.85;19.77;;;-3.30;99.90;;;;;;4954144;28;20054;-67
2024/01/09 08:36:43;;;;;;;50.30;20.02;;;-3.30;99.90;;;;;;4953782;28;20051;-65
2024/01/09 08:39:10;;;;;;;55.70;21.63;;;-3.20;99.90;;;;;;4955584;29;20489;-65
2024/01/09 08:41:37;;;;;;;58.13;22.15;;;-3.30;99.90;;;;;;4946899;29;20047;-65
2024/01/09 08:44:04;;;;;;;50.53;20.13;;;-3.20;99.90;;;;;;4951347;29;20071;-65
2024/01/09 08:46:31;;;;;;;51.50;20.73;;;-3.10;99.90;;;;;;4946694;29;20051;-65
2024/01/09 08:48:58;;;;;;;54.17;21.25;;;-3.10;99.90;;;;;;4954833;29;20517;-65
2024/01/09 08:51:25;;;;;;;53.50;20.65;;;-3.00;99.90;;;;;;4946579;29;20047;-65
2024/01/09 08:53:54;;;;;;;52.47;21.08;;;-3.00;99.90;;;;;;4954142;28;20043;-65
2024/01/09 08:56:21;;;;;;;54.65;20.63;;;-2.80;99.90;;;;;;4954757;28;20585;-65
2024/01/09 08:58:49;;;;;;;56.70;23.00;;;-2.70;99.90;;;;;;4954666;29;20047;-65
2024/01/09 09:01:20;;;;;;;56.40;21.75;;;-2.60;99.90;;;;;;4949031;29;20054;-65
2024/01/09 09:03:48;;;;;;;52.45;21.30;;;-2.50;99.90;;;;;;4954586;28;20043;-65
2024/01/09 09:06:16;;;;;;;53.30;19.52;;;-2.50;99.90;;;;;;4953127;29;20043;-65
2024/01/09 09:08:43;;;;;;;61.70;20.83;;;-2.50;99.90;;;;;;4947021;29;20051;-65
2024/01/09 09:11:14;;;;;;;;;;;-2.50;99.90;;;;;;4946682;29;20047;-65
2024/01/09 09:13:44;;;;;;;49.38;20.10;;;-2.40;99.90;;;;;;4954702;28;19922;-65
2024/01/09 09:16:11;;;;;;;59.40;24.73;;;-2.40;99.90;;;;;;4950213;29;20047;-65
2024/01/09 09:18:38;;;;;;;63.75;24.38;;;-2.40;99.90;;;;;;4950858;29;20044;-65
2024/01/09 09:21:05;;;;;;;59.60;23.83;;;-2.40;99.90;;;;;;4953648;28;20054;-65
2024/01/09 09:23:33;;;;;;;;;;;-2.50;99.90;;;;;;4955075;28;20051;-65
2024/01/09 09:26:00;;;;;;;56.83;23.17;;;-2.40;99.90;;;;;;4945189;29;19923;-65
2024/01/09 09:28:27;;;;;;;61.97;24.10;;;-2.30;99.90;;;;;;4954401;29;20832;-65
2024/01/09 09:31:06;;;;;;;58.65;23.02;;;-2.20;99.90;;;;;;4945915;29;20051;-65
2024/01/09 09:33:34;;;;;;;67.65;22.88;;;-2.20;99.90;;;;;;4932725;29;20055;-65
2024/01/09 09:36:06;;;;;;;59.40;23.38;;;-2.10;99.90;;;;;;4951271;29;20039;-65
2024/01/09 09:38:33;;;;;;;58.55;23.90;;;-2.00;99.90;;;;;;4954316;29;20047;-65
2024/01/09 09:41:05;;;;;;;54.83;23.48;;;-2.10;99.90;;;;;;4952471;29;20083;-64
2024/01/09 09:43:35;;;;;;;56.50;21.95;;;-2.00;99.90;;;;;;4952843;28;20054;-65
2024/01/09 09:46:05;;;;;;;51.80;21.75;;;-1.90;99.90;;;;;;4952089;29;20053;-65
2024/01/09 09:48:35;;;;;;;54.28;21.52;;;-1.90;99.90;;;;;;4953123;28;20047;-65
2024/01/09 09:51:04;;;;;;;55.40;21.25;;;-1.90;99.90;;;;;;4953366;29;20039;-65
2024/01/09 09:53:31;;;;;;;51.80;20.48;;;-1.90;99.90;;;;;;4953838;28;20037;-65
2024/01/09 09:55:58;;;;;;;48.80;20.65;;;-1.90;99.90;;;;;;4950209;29;20047;-65
2024/01/09 09:58:25;;;;;;;49.00;21.80;;;-1.80;99.90;;;;;;4945958;29;20138;-65
2024/01/09 10:00:56;;;;;;;51.97;21.30;;;-1.80;99.90;;;;;;4951534;28;20469;-64
2024/01/09 10:03:31;;;;;;;52.25;20.98;;;-1.90;99.90;;;;;;4953940;28;20027;-65
2024/01/09 10:06:04;;;;;;;48.42;20.08;;;-2.00;99.90;;;;;;4953700;29;20445;-65
2024/01/09 10:08:34;;;;;;;50.22;20.98;;;-1.90;99.90;;;;;;4953569;29;20043;-65
2024/01/09 10:11:01;;;;;;;48.88;20.48;;;-1.90;99.90;;;;;;4950275;29;20122;-65
2024/01/09 10:13:28;;;;;;;49.45;20.88;;;-1.80;99.90;;;;;;4953352;28;20548;-64
2024/01/09 10:15:59;;;;;;;52.58;21.80;;;-1.90;99.90;;;;;;4950599;29;20044;-65
2024/01/09 10:18:31;;;;;;;56.88;20.85;;;-2.00;99.90;;;;;;4953500;29;20043;-65
2024/01/09 10:21:01;;;;;;;56.63;21.45;;;-2.10;99.90;;;;;;4952696;29;20027;-65
2024/01/09 10:23:29;;;;;;;46.95;19.50;;;-2.00;99.90;;;;;;4953542;28;20537;-65
2024/01/09 10:25:56;;;;;;;51.72;20.83;;;-1.90;99.90;;;;;;4942028;29;20107;-65
2024/01/09 10:28:23;;;;;;;51.30;20.58;;;-2.00;99.90;;;;;;4948423;28;20051;-65
2024/01/09 10:30:52;;;;;;;54.55;21.23;;;-2.00;99.90;;;;;;4949055;29;20050;-65
2024/01/09 10:33:19;;;;;;;52.53;20.80;;;-2.00;99.90;;;;;;4952764;29;20038;-65
2024/01/09 10:35:46;;;;;;;;;;;-1.90;99.90;;;;;;4952689;28;20039;-65
2024/01/09 10:38:13;;;;;;;56.35;20.80;;;-1.90;99.90;;;;;;4942448;28;19922;-65
2024/01/09 10:40:40;;;;;;;60.42;22.67;;;-1.80;99.90;;;;;;4952680;29;20043;-65
2024/01/09 10:43:07;;;;;;;62.50;23.08;;;-1.70;99.90;;;;;;4952830;29;20045;-65
2024/01/09 10:45:35;;;;;;;53.05;21.67;;;-1.60;99.90;;;;;;4950313;28;20046;-65
2024/01/09 10:48:05;;;;;;;51.90;22.20;;;-1.70;99.90;;;;;;4942313;28;20122;-65
2024/01/09 10:50:33;;;;;;;54.15;21.60;;;-1.70;99.90;;;;;;4952424;29;20043;-65
2024/01/09 10:53:00;;;;;;;54.42;22.42;;;-1.80;99.90;;;;;;4952534;29;20121;-65
2024/01/09 10:55:27;;;;;;;62.70;22.77;;;-1.80;99.90;;;;;;4944521;28;20481;-65
2024/01/09 10:57:55;;;;;;;53.00;22.15;;;-1.90;99.90;;;;;;4950223;29;20039;-65
2024/01/09 11:00:24;;;;;;;56.45;23.40;;;-1.90;99.90;;;;;;4957061;28;20038;-65
2024/01/09 11:02:51;;;;;;;52.03;21.95;;;-1.80;99.90;;;;;;4951859;28;20049;-65
2024/01/09 11:05:18;;;;;;;64.88;24.15;;;-1.60;99.90;;;;;;4959287;28;20051;-65
2024/01/09 11:07:48;;;;;;;51.70;22.13;;;-1.50;99.90;;;;;;4959338;28;20043;-65
2024/01/09 11:10:19;;;;;;;47.85;20.77;;;-1.40;99.90;;;;;;4950540;29;20039;-65
2024/01/09 11:12:49;;;;;;;48.92;20.00;;;-1.50;99.90;;;;;;4957081;29;20043;-65
2024/01/09 11:15:24;;;;;;;54.65;21.23;;;-1.50;99.90;;;;;;4951178;28;20043;-65
2024/01/09 11:17:57;;;;;;;47.25;19.95;;;-1.60;99.90;;;;;;4958954;28;20047;-65
2024/01/09 11:20:24;;;;;;;48.60;20.25;;;-1.60;99.90;;;;;;4957559;28;20039;-65
2024/01/09 11:22:52;;;;;;;52.15;22.20;;;-1.60;99.90;;;;;;4959004;29;20145;-64
2024/01/09 11:25:28;;;;;;;48.45;19.30;;;-1.60;99.90;;;;;;4959164;28;20552;-65
2024/01/09 11:27:55;;;;;;;53.78;20.23;;;-1.70;99.90;;;;;;4943492;29;20515;-65
2024/01/09 11:30:27;;;;;;;51.03;20.88;;;-1.80;99.90;;;;;;4958655;29;20382;-65
2024/01/09 11:32:56;;;;;;;50.28;21.40;;;-2.00;99.90;;;;;;4958625;28;20094;-65
2024/01/09 11:35:27;;;;;;;55.35;22.05;;;-2.10;99.90;;;;;;4944873;28;20504;-65
2024/01/09 11:37:58;;;;;;;57.10;21.13;;;-2.30;99.90;;;;;;4955526;29;20050;-64
2024/01/09 11:40:25;;;;;;;48.63;20.30;;;-2.30;99.90;;;;;;4958893;28;20520;-65
2024/01/09 11:42:52;;;;;;;56.13;21.42;;;-2.20;99.90;;;;;;4961696;28;20118;-65
2024/01/09 11:45:26;;;;;;;55.95;20.85;;;-2.10;99.90;;;;;;4939417;29;20040;-65
2024/01/09 11:47:53;;;;;;;57.65;20.65;;;-2.00;99.90;;;;;;4947444;29;20047;-65
2024/01/09 11:50:21;;;;;;;51.65;21.13;;;-2.00;99.90;;;;;;4958414;29;20157;-65
2024/01/09 11:52:48;;;;;;;56.88;21.50;;;-2.00;99.90;;;;;;4949935;29;20146;-65
2024/01/09 11:55:18;;;;;;;46.47;18.85;;;-2.00;99.90;;;;;;4958331;28;20087;-65
2024/01/09 11:57:45;;;;;;;58.28;21.23;;;-2.20;99.90;;;;;;4958559;28;20044;-65
2024/01/09 12:00:12;;;;;;;52.67;22.65;;;-2.10;99.90;;;;;;4956949;29;20111;-65
2024/01/09 12:02:39;;;;;;;53.00;20.85;;;-2.10;99.90;;;;;;4951703;28;20047;-65
2024/01/09 12:05:07;;;;;;;58.55;22.85;;;-2.10;99.90;;;;;;4957938;28;20057;-65
2024/01/09 12:07:37;;;;;;;55.25;20.50;;;-2.00;99.90;;;;;;4958806;29;20051;-65
2024/01/09 12:10:05;;;;;;;52.47;21.13;;;-2.00;99.90;;;;;;4955686;28;20102;-65
2024/01/09 12:12:47;;;;;;;56.03;21.60;;;-2.00;99.90;;;;;;4950954;29;20043;-65
2024/01/09 12:15:19;;;;;;;46.33;19.60;;;-1.90;99.90;;;;;;4955354;28;20043;-65
2024/01/09 12:17:56;;;;;;;50.67;21.67;;;-1.80;99.90;;;;;;4951973;28;20127;-65
2024/01/09 12:20:23;;;;;;;58.78;21.52;;;-1.80;99.90;;;;;;4955017;29;20118;-65
2024/01/09 12:22:51;;;;;;;50.75;20.92;;;-1.80;99.90;;;;;;4955418;29;20118;-65
2024/01/09 12:25:18;;;;;;;50.50;21.75;;;-1.80;99.90;;;;;;4950376;28;20387;-65
2024/01/09 12:27:45;;;;;;;56.42;21.70;;;-1.80;99.90;;;;;;4955380;29;20039;-65
2024/01/09 12:30:13;;;;;;;57.15;21.50;;;-1.90;99.90;;;;;;4954593;29;20051;-65
2024/01/09 12:32:41;;;;;;;57.38;21.13;;;-2.00;99.90;;;;;;4953924;29;20524;-65
2024/01/09 12:35:08;;;;;;;51.25;21.13;;;-2.00;99.90;;;;;;4949221;28;20051;-65